createdAt,value
2022-08-16T00:02:24.230Z,10.52
2022-08-16T00:04:51.117Z,8.80
2022-08-16T00:07:17.972Z,9.55
2022-08-16T00:09:45.215Z,11.57
2022-08-16T00:12:12.454Z,9.52
2022-08-16T00:14:44.883Z,13.13
2022-08-16T00:17:18.683Z,12.95
2022-08-16T00:19:46.788Z,10.02
2022-08-16T00:22:15.623Z,10.25
2022-08-16T00:24:46.761Z,11.18
2022-08-16T00:27:14.515Z,11.07
2022-08-16T00:29:41.464Z,11.20
2022-08-16T00:32:11.091Z,9.95
2022-08-16T00:34:43.392Z,10.13
2022-08-16T00:37:24.079Z,11.80
2022-08-16T00:39:57.138Z,8.43
2022-08-16T00:42:30.227Z,11.80
2022-08-16T00:45:09.677Z,11.48
2022-08-16T00:47:49.491Z,10.57
2022-08-16T00:50:21.748Z,8.77
2022-08-16T00:53:04.278Z,10.20
2022-08-16T00:55:37.787Z,10.32
2022-08-16T00:58:13.174Z,9.90
2022-08-16T01:00:45.656Z,11.27
2022-08-16T01:03:30.410Z,9.57
2022-08-16T01:06:39.964Z,11.82
2022-08-16T01:08:52.182Z,13.98
2022-08-16T01:11:19.407Z,10.07
2022-08-16T01:13:50.488Z,10.20
2022-08-16T01:16:23.643Z,10.23
2022-08-16T01:19:29.298Z,9.25
2022-08-16T01:22:48.000Z,12.25
2022-08-16T01:25:22.765Z,10.07
2022-08-16T01:28:04.319Z,13.23
2022-08-16T01:30:34.635Z,12.20
2022-08-16T01:33:15.341Z,13.38
2022-08-16T01:36:11.924Z,9.90
2022-08-16T01:38:47.084Z,9.25
2022-08-16T01:41:22.986Z,10.45
2022-08-16T01:43:53.955Z,10.70
2022-08-16T01:46:39.731Z,10.20
2022-08-16T01:49:18.969Z,10.52
2022-08-16T01:51:51.447Z,10.20
2022-08-16T01:54:30.509Z,10.05
2022-08-16T01:56:58.460Z,10.52
2022-08-16T01:59:26.205Z,11.30
2022-08-16T02:02:00.098Z,9.27
2022-08-16T02:04:49.648Z,9.75
2022-08-16T02:07:18.683Z,10.82
2022-08-16T02:09:58.658Z,11.10
2022-08-16T02:12:55.746Z,12.20
2022-08-16T02:15:26.000Z,11.73
2022-08-16T02:17:57.964Z,10.15
2022-08-16T02:20:27.906Z,11.27
2022-08-16T02:22:59.573Z,8.65
2022-08-16T02:25:52.516Z,8.57
2022-08-16T02:28:17.247Z,10.82
2022-08-16T02:30:50.505Z,11.18
2022-08-16T02:33:18.408Z,8.63
2022-08-16T02:35:49.957Z,10.68
2022-08-16T02:38:26.480Z,8.50
2022-08-16T02:40:54.380Z,13.82
2022-08-16T02:43:26.772Z,9.13
2022-08-16T02:45:56.334Z,8.65
2022-08-16T02:48:29.629Z,12.32
2022-08-16T02:51:06.236Z,11.13
2022-08-16T02:53:44.637Z,9.82
2022-08-16T02:56:15.148Z,11.88
2022-08-16T02:58:44.354Z,11.68
2022-08-16T03:01:24.083Z,9.98
2022-08-16T03:04:29.102Z,9.25
2022-08-16T03:06:43.165Z,10.60
2022-08-16T03:09:20.138Z,8.85
2022-08-16T03:11:51.205Z,9.38
2022-08-16T03:14:20.831Z,10.38
2022-08-16T03:16:59.354Z,9.50
2022-08-16T03:19:48.055Z,10.32
2022-08-16T03:22:29.147Z,8.85
2022-08-16T03:25:07.766Z,12.60
2022-08-16T03:27:36.308Z,10.98
2022-08-16T03:30:15.276Z,15.63
2022-08-16T03:32:49.673Z,11.23
2022-08-16T03:35:22.505Z,9.52
2022-08-16T03:38:02.451Z,9.95
2022-08-16T03:40:36.032Z,9.27
2022-08-16T03:43:20.436Z,10.68
2022-08-16T03:45:53.630Z,10.95
2022-08-16T03:48:36.399Z,9.88
2022-08-16T03:51:12.926Z,9.82
2022-08-16T03:54:01.026Z,12.32
2022-08-16T03:56:30.586Z,9.68
2022-08-16T03:58:59.690Z,11.05
2022-08-16T04:01:31.172Z,12.07
2022-08-16T04:03:58.334Z,12.63
2022-08-16T04:06:26.622Z,9.10
2022-08-16T04:08:53.925Z,8.30
2022-08-16T04:11:23.701Z,11.18
2022-08-16T04:14:00.892Z,8.23
2022-08-16T04:16:41.550Z,9.95
2022-08-16T04:19:26.752Z,14.40
2022-08-16T04:22:00.812Z,9.60
2022-08-16T04:24:31.492Z,7.60
2022-08-16T04:26:59.118Z,10.60
2022-08-16T04:29:27.823Z,9.75
2022-08-16T04:32:11.192Z,9.63
2022-08-16T04:34:40.878Z,9.70
2022-08-16T04:37:09.088Z,9.93
2022-08-16T04:39:46.760Z,9.85
2022-08-16T04:42:26.328Z,10.77
2022-08-16T04:44:58.379Z,14.07
2022-08-16T04:47:33.372Z,9.18
2022-08-16T04:50:19.088Z,10.60
2022-08-16T04:53:12.098Z,12.02
2022-08-16T04:55:44.337Z,8.75
2022-08-16T04:58:43.561Z,10.90
2022-08-16T05:01:01.356Z,10.48
2022-08-16T05:03:30.833Z,12.05
2022-08-16T05:05:59.968Z,7.60
2022-08-16T05:08:32.872Z,8.57
2022-08-16T05:11:17.566Z,8.88
2022-08-16T05:13:47.572Z,7.07
2022-08-16T05:16:27.497Z,7.55
2022-08-16T05:19:06.266Z,7.35
2022-08-16T05:21:40.309Z,7.53
2022-08-16T05:24:10.079Z,6.57
2022-08-16T05:26:43.237Z,8.35
2022-08-16T05:29:16.849Z,9.77
2022-08-16T05:32:01.380Z,7.78
2022-08-16T05:34:28.724Z,6.55
2022-08-16T05:36:57.379Z,7.10
2022-08-16T05:39:30.987Z,8.00
2022-08-16T05:42:00.104Z,7.22
2022-08-16T05:44:26.897Z,7.13
2022-08-16T05:47:00.202Z,7.93
2022-08-16T05:49:38.919Z,5.50
2022-08-16T05:52:10.708Z,9.02
2022-08-16T05:54:46.768Z,8.65
2022-08-16T05:57:17.244Z,11.57
2022-08-16T05:59:45.532Z,10.80
2022-08-16T06:02:14.855Z,8.02
2022-08-16T06:04:45.140Z,6.72
2022-08-16T06:07:24.871Z,6.40
2022-08-16T06:10:32.424Z,8.70
2022-08-16T06:13:01.653Z,6.93
2022-08-16T06:15:28.231Z,5.03
2022-08-16T06:17:59.132Z,5.03
2022-08-16T06:20:35.243Z,4.85
2022-08-16T06:23:11.821Z,10.27
2022-08-16T06:25:56.342Z,6.38
2022-08-16T06:28:35.758Z,4.53
2022-08-16T06:31:06.837Z,7.25
2022-08-16T06:33:41.325Z,10.00
2022-08-16T06:36:10.343Z,5.95
2022-08-16T06:38:38.652Z,5.22
2022-08-16T06:41:29.601Z,6.57
2022-08-16T06:44:20.715Z,6.10
2022-08-16T06:46:50.531Z,4.40
2022-08-16T06:49:18.816Z,6.50
2022-08-16T06:51:46.234Z,7.60
2022-08-16T06:54:16.332Z,5.43
2022-08-16T06:56:43.138Z,5.72
2022-08-16T06:59:13.575Z,4.75
2022-08-16T07:01:50.795Z,7.10
2022-08-16T07:04:32.324Z,4.53
2022-08-16T07:07:05.745Z,7.05
2022-08-16T07:09:32.715Z,4.80
2022-08-16T07:12:03.246Z,6.50
2022-08-16T07:14:33.257Z,6.10
2022-08-16T07:17:01.359Z,5.68
2022-08-16T07:20:01.712Z,4.30
2022-08-16T07:22:38.047Z,5.53
2022-08-16T07:25:20.316Z,4.10
2022-08-16T07:27:49.841Z,3.50
2022-08-16T07:30:38.252Z,4.32
2022-08-16T07:33:10.090Z,3.50
2022-08-16T07:35:44.220Z,5.72
2022-08-16T07:38:19.919Z,4.88
2022-08-16T07:41:01.191Z,4.45
2022-08-16T07:43:30.371Z,4.38
2022-08-16T07:46:01.582Z,9.20
2022-08-16T07:48:31.031Z,4.60
2022-08-16T07:50:59.778Z,5.20
2022-08-16T07:53:30.996Z,5.30
2022-08-16T07:56:00.199Z,10.00
2022-08-16T07:58:36.293Z,3.78
2022-08-16T08:01:10.538Z,5.10
2022-08-16T08:03:48.721Z,6.53
2022-08-16T08:06:25.325Z,3.13
2022-08-16T08:08:57.547Z,3.83
2022-08-16T08:11:28.107Z,3.95
2022-08-16T08:14:00.814Z,4.85
2022-08-16T08:16:33.028Z,5.07
2022-08-16T08:19:02.664Z,3.80
2022-08-16T08:21:58.805Z,3.45
2022-08-16T08:24:22.436Z,5.20
2022-08-16T08:26:59.244Z,4.05
2022-08-16T08:29:36.815Z,4.03
2022-08-16T08:33:00.495Z,6.93
2022-08-16T08:35:03.150Z,3.80
2022-08-16T08:37:55.506Z,7.25
2022-08-16T08:40:20.553Z,3.95
2022-08-16T08:42:52.204Z,4.95
2022-08-16T08:45:48.789Z,4.38
2022-08-16T08:48:33.771Z,3.83
2022-08-16T08:51:09.192Z,3.25
2022-08-16T08:53:46.392Z,3.20
2022-08-16T08:56:30.432Z,2.45
2022-08-16T08:59:13.156Z,2.78
2022-08-16T09:01:56.958Z,3.70
2022-08-16T09:04:27.643Z,3.58
2022-08-16T09:06:55.876Z,5.22
2022-08-16T09:09:25.240Z,3.58
2022-08-16T09:12:06.571Z,2.80
2022-08-16T09:14:54.559Z,4.68
2022-08-16T09:17:54.971Z,5.22
2022-08-16T09:20:14.350Z,3.90
2022-08-16T09:22:44.073Z,4.30
2022-08-16T09:25:23.047Z,2.83
2022-08-16T09:27:57.290Z,3.63
2022-08-16T09:30:34.115Z,6.57
2022-08-16T09:33:06.835Z,2.97
2022-08-16T09:35:38.855Z,4.47
2022-08-16T09:38:08.291Z,3.58
2022-08-16T09:40:42.782Z,3.42
2022-08-16T09:43:21.098Z,3.22
2022-08-16T09:45:57.983Z,4.53
2022-08-16T09:48:37.192Z,4.07
2022-08-16T09:51:12.889Z,5.68
2022-08-16T09:53:39.752Z,4.10
2022-08-16T09:56:28.952Z,3.42
2022-08-16T09:59:05.429Z,2.35
2022-08-16T10:01:36.581Z,3.17
2022-08-16T10:04:14.080Z,3.55
2022-08-16T10:06:53.414Z,2.53
2022-08-16T10:09:20.245Z,2.90
2022-08-16T10:12:10.925Z,6.55
2022-08-16T10:14:40.701Z,4.47
2022-08-16T10:17:12.773Z,3.35
2022-08-16T10:19:39.664Z,3.42
2022-08-16T10:22:06.217Z,5.03
2022-08-16T10:24:33.664Z,3.25
2022-08-16T10:27:26.709Z,4.40
2022-08-16T10:30:01.058Z,3.58
2022-08-16T10:32:33.929Z,4.88
2022-08-16T10:35:03.346Z,3.80
2022-08-16T10:37:32.581Z,2.80
2022-08-16T10:40:28.719Z,7.63
2022-08-16T10:42:54.516Z,2.75
2022-08-16T10:45:21.201Z,5.43
2022-08-16T10:48:02.022Z,3.40
2022-08-16T10:50:32.653Z,4.20
2022-08-16T10:53:05.040Z,3.75
2022-08-16T10:55:43.703Z,4.95
2022-08-16T10:58:13.032Z,2.88
2022-08-16T11:00:40.837Z,3.10
2022-08-16T11:03:42.329Z,2.30
2022-08-16T11:06:06.324Z,2.15
2022-08-16T11:08:39.674Z,3.13
2022-08-16T11:11:11.788Z,2.92
2022-08-16T11:14:11.223Z,1.83
2022-08-16T11:19:20.232Z,2.33
2022-08-16T11:24:43.456Z,3.70
2022-08-16T11:27:23.927Z,2.42
2022-08-16T11:29:56.517Z,2.45
2022-08-16T11:32:31.240Z,4.28
2022-08-16T11:35:14.099Z,3.60
2022-08-16T11:40:40.757Z,2.25
2022-08-16T11:43:10.910Z,2.80
2022-08-16T11:45:38.407Z,2.47
2022-08-16T11:48:05.845Z,5.88
2022-08-16T11:50:33.833Z,5.15
2022-08-16T11:53:05.395Z,1.98
2022-08-16T11:55:38.108Z,2.28
2022-08-16T11:58:06.767Z,2.40
2022-08-16T12:00:51.433Z,3.10
2022-08-16T12:03:21.832Z,2.60
2022-08-16T12:06:00.346Z,3.97
2022-08-16T12:08:27.347Z,3.85
2022-08-16T12:10:55.257Z,2.38
2022-08-16T12:13:26.921Z,3.08
2022-08-16T12:15:53.714Z,2.17
2022-08-16T12:18:21.619Z,3.22
2022-08-16T12:20:48.635Z,6.82
2022-08-16T12:23:15.264Z,3.80
2022-08-16T12:25:44.246Z,4.13
2022-08-16T12:28:11.133Z,3.13
2022-08-16T12:30:40.940Z,4.38
2022-08-16T12:33:10.530Z,2.50
2022-08-16T12:35:39.396Z,2.95
2022-08-16T12:38:08.727Z,2.65
2022-08-16T12:40:55.660Z,3.70
2022-08-16T12:43:25.332Z,2.63
2022-08-16T12:45:55.246Z,2.10
2022-08-16T12:48:44.570Z,9.95
2022-08-16T12:51:19.689Z,1.95
2022-08-16T12:53:53.489Z,3.60
2022-08-16T12:56:26.111Z,2.65
2022-08-16T12:58:56.068Z,2.60
2022-08-16T13:01:28.679Z,4.00
2022-08-16T13:04:12.274Z,3.47
2022-08-16T13:06:44.659Z,2.63
2022-08-16T13:09:23.603Z,3.05
2022-08-16T13:12:00.093Z,8.25
2022-08-16T13:14:34.267Z,12.25
2022-08-16T13:17:06.490Z,11.68
2022-08-16T13:20:03.456Z,4.93
2022-08-16T13:22:22.117Z,5.88
2022-08-16T13:24:50.553Z,2.72
2022-08-16T13:27:17.923Z,15.85
2022-08-16T13:29:45.125Z,10.02
2022-08-16T13:32:39.405Z,4.93
2022-08-16T13:35:05.449Z,3.20
2022-08-16T13:37:32.543Z,5.35
2022-08-16T13:40:05.483Z,4.38
2022-08-16T13:42:32.495Z,4.57
2022-08-16T13:45:08.963Z,8.32
2022-08-16T13:47:39.982Z,2.10
2022-08-16T13:50:09.683Z,2.88
2022-08-16T13:52:50.597Z,5.57
2022-08-16T13:55:18.158Z,2.60
2022-08-16T13:58:26.718Z,2.65
2022-08-16T14:00:31.657Z,2.78
2022-08-16T14:02:59.185Z,3.92
2022-08-16T14:05:26.552Z,3.30
2022-08-16T14:07:53.993Z,2.38
2022-08-16T14:10:21.113Z,3.42
2022-08-16T14:12:47.927Z,3.78
2022-08-16T14:15:15.982Z,3.63
2022-08-16T14:18:15.758Z,7.10
2022-08-16T14:20:37.693Z,4.05
2022-08-16T14:23:06.141Z,2.38
2022-08-16T14:25:32.906Z,2.92
2022-08-16T14:27:59.506Z,2.95
2022-08-16T14:30:26.374Z,2.72
2022-08-16T14:32:54.024Z,2.70
2022-08-16T14:35:36.641Z,3.33
2022-08-16T14:38:13.540Z,4.20
2022-08-16T14:40:47.199Z,4.85
2022-08-16T14:43:19.186Z,2.70
2022-08-16T14:45:47.032Z,3.97
2022-08-16T14:48:25.111Z,3.63
2022-08-16T14:50:54.220Z,6.10
2022-08-16T14:53:23.502Z,2.40
2022-08-16T14:55:50.016Z,10.40
2022-08-16T14:58:19.678Z,3.53
2022-08-16T15:00:47.848Z,2.85
2022-08-16T15:03:18.730Z,3.08
2022-08-16T15:05:48.285Z,2.55
2022-08-16T15:08:17.105Z,3.40
2022-08-16T15:10:47.180Z,2.50
2022-08-16T15:13:15.044Z,3.83
2022-08-16T15:15:43.376Z,3.05
2022-08-16T15:18:12.111Z,2.67
2022-08-16T15:20:39.517Z,6.28
2022-08-16T15:23:08.598Z,2.85
2022-08-16T15:25:41.438Z,2.55
2022-08-16T15:28:23.942Z,2.40
2022-08-16T15:31:01.003Z,4.45
2022-08-16T15:33:32.763Z,2.63
2022-08-16T15:36:00.237Z,2.97
2022-08-16T15:38:54.717Z,2.38
2022-08-16T15:41:33.513Z,2.03
2022-08-16T15:44:05.101Z,2.00
2022-08-16T15:46:56.406Z,3.28
2022-08-16T15:49:23.636Z,1.80
2022-08-16T15:51:52.012Z,3.28
2022-08-16T15:54:30.716Z,7.40
2022-08-16T15:57:10.861Z,2.50
2022-08-16T15:59:49.078Z,2.03
2022-08-16T16:02:29.810Z,2.05
2022-08-16T16:05:04.294Z,2.53
2022-08-16T16:07:32.230Z,2.55
2022-08-16T16:10:01.957Z,5.53
2022-08-16T16:12:51.274Z,5.05
2022-08-16T16:15:17.704Z,2.72
2022-08-16T16:17:46.851Z,2.50
2022-08-16T16:20:24.555Z,3.45
2022-08-16T16:22:56.656Z,2.55
2022-08-16T16:25:24.925Z,2.67
2022-08-16T16:27:55.515Z,2.17
2022-08-16T16:30:37.508Z,4.70
2022-08-16T16:33:21.014Z,3.03
2022-08-16T16:35:57.420Z,4.82
2022-08-16T16:38:29.015Z,1.95
2022-08-16T16:40:57.743Z,3.47
2022-08-16T16:43:25.917Z,2.95
2022-08-16T16:45:58.331Z,2.38
2022-08-16T16:48:35.075Z,3.38
2022-08-16T16:51:09.149Z,3.22
2022-08-16T16:53:42.090Z,2.42
2022-08-16T16:56:19.623Z,2.50
2022-08-16T16:58:57.101Z,2.67
2022-08-16T17:01:41.265Z,4.35
2022-08-16T17:04:23.839Z,3.38
2022-08-16T17:06:58.152Z,2.03
2022-08-16T17:09:24.811Z,2.08
2022-08-16T17:11:54.893Z,2.97
2022-08-16T17:14:32.654Z,2.45
2022-08-16T17:17:04.208Z,1.98
2022-08-16T17:19:31.659Z,3.53
2022-08-16T17:21:59.582Z,3.38
2022-08-16T17:24:31.995Z,2.72
2022-08-16T17:27:08.324Z,2.15
2022-08-16T17:29:46.095Z,5.03
2022-08-16T17:32:33.588Z,3.33
2022-08-16T17:35:10.914Z,4.82
2022-08-16T17:37:50.662Z,6.50
2022-08-16T17:40:25.846Z,3.20
2022-08-16T17:43:10.256Z,2.88
2022-08-16T17:45:39.152Z,2.88
2022-08-16T17:48:06.463Z,2.88
2022-08-16T17:50:33.228Z,2.28
2022-08-16T17:53:00.965Z,2.47
2022-08-16T17:55:33.822Z,2.10
2022-08-16T17:58:00.549Z,2.70
2022-08-16T18:00:29.276Z,5.18
2022-08-16T18:02:59.649Z,7.38
2022-08-16T18:05:28.470Z,2.95
2022-08-16T18:07:55.354Z,3.33
2022-08-16T18:10:32.651Z,2.58
2022-08-16T18:13:00.826Z,3.13
2022-08-16T18:15:27.901Z,3.00
2022-08-16T18:17:54.731Z,2.65
2022-08-16T18:20:42.150Z,2.97
2022-08-16T18:23:17.992Z,4.30
2022-08-16T18:25:50.649Z,5.53
2022-08-16T18:28:18.167Z,5.25
2022-08-16T18:30:50.934Z,3.60
2022-08-16T18:33:19.545Z,5.13
2022-08-16T18:35:46.060Z,4.03
2022-08-16T18:38:13.005Z,3.65
2022-08-16T18:40:39.957Z,4.20
2022-08-16T18:43:09.685Z,5.80
2022-08-16T18:45:39.885Z,5.18
2022-08-16T18:48:08.040Z,4.30
2022-08-16T18:50:59.471Z,4.28
2022-08-16T18:53:26.376Z,4.88
2022-08-16T18:55:57.157Z,4.22
2022-08-16T18:58:24.613Z,3.72
2022-08-16T19:00:56.294Z,4.60
2022-08-16T19:03:30.017Z,5.28
2022-08-16T19:05:59.760Z,4.78
2022-08-16T19:08:26.292Z,3.80
2022-08-16T19:10:52.969Z,4.45
2022-08-16T19:13:25.800Z,3.58
2022-08-16T19:15:56.273Z,3.53
2022-08-16T19:18:23.244Z,4.40
2022-08-16T19:20:50.644Z,4.70
2022-08-16T19:23:21.438Z,6.38
2022-08-16T19:25:52.956Z,4.22
2022-08-16T19:28:49.281Z,3.90
2022-08-16T19:31:23.996Z,4.38
2022-08-16T19:33:55.364Z,5.10
2022-08-16T19:36:35.030Z,5.15
2022-08-16T19:39:09.196Z,4.00
2022-08-16T19:41:39.092Z,3.35
2022-08-16T19:44:06.994Z,4.15
2022-08-16T19:46:34.437Z,9.70
2022-08-16T19:49:01.222Z,4.18
2022-08-16T19:51:28.131Z,5.97
2022-08-16T19:53:54.673Z,6.97
2022-08-16T19:56:23.807Z,5.18
2022-08-16T19:59:16.995Z,4.93
2022-08-16T20:01:41.908Z,4.18
2022-08-16T20:04:12.278Z,3.85
2022-08-16T20:06:39.948Z,5.15
2022-08-16T20:09:07.075Z,5.25
2022-08-16T20:11:35.128Z,4.88
2022-08-16T20:14:02.313Z,3.22
2022-08-16T20:16:29.004Z,3.40
2022-08-16T20:18:55.551Z,6.50
2022-08-16T20:21:22.145Z,3.47
2022-08-16T20:23:48.827Z,5.10
2022-08-16T20:26:15.494Z,5.15
2022-08-16T20:28:53.833Z,4.10
2022-08-16T20:31:22.450Z,5.10
2022-08-16T20:33:49.746Z,4.30
2022-08-16T20:36:16.822Z,3.55
2022-08-16T20:38:46.720Z,6.40
2022-08-16T20:41:13.611Z,4.50
2022-08-16T20:43:40.309Z,4.60
2022-08-16T20:46:06.992Z,5.68
2022-08-16T20:48:33.551Z,3.10
2022-08-16T20:51:00.080Z,8.35
2022-08-16T20:53:26.665Z,3.83
2022-08-16T20:55:53.482Z,6.47
2022-08-16T20:58:20.159Z,4.10
2022-08-16T21:00:47.242Z,10.07
2022-08-16T21:03:14.349Z,3.88
2022-08-16T21:05:41.107Z,4.28
2022-08-16T21:08:28.741Z,4.35
2022-08-16T21:10:59.191Z,4.20
2022-08-16T21:13:25.899Z,3.30
2022-08-16T21:15:52.848Z,6.80
2022-08-16T21:18:19.578Z,5.28
2022-08-16T21:20:46.078Z,5.30
2022-08-16T21:23:13.149Z,4.82
2022-08-16T21:25:54.829Z,6.57
2022-08-16T21:28:40.689Z,5.05
2022-08-16T21:31:13.649Z,5.10
2022-08-16T21:33:41.179Z,6.07
2022-08-16T21:36:08.069Z,4.88
2022-08-16T21:38:35.012Z,6.60
2022-08-16T21:41:03.203Z,6.38
2022-08-16T21:43:32.881Z,7.60
2022-08-16T21:46:01.630Z,8.75
2022-08-16T21:48:34.943Z,4.72
2022-08-16T21:51:08.405Z,4.72
2022-08-16T21:53:35.903Z,5.82
2022-08-16T21:56:03.312Z,5.03
2022-08-16T21:58:31.224Z,6.07
2022-08-16T22:00:58.637Z,4.45
2022-08-16T22:03:25.220Z,6.00
2022-08-16T22:06:12.620Z,5.97
2022-08-16T22:08:49.324Z,4.70
2022-08-16T22:11:17.461Z,5.00
2022-08-16T22:13:51.292Z,4.57
2022-08-16T22:16:32.815Z,6.25
2022-08-16T22:19:00.808Z,3.72
2022-08-16T22:21:27.494Z,4.45
2022-08-16T22:23:57.429Z,5.55
2022-08-16T22:26:31.784Z,6.43
2022-08-16T22:29:11.141Z,5.45
2022-08-16T22:31:39.820Z,7.07
2022-08-16T22:34:06.587Z,4.05
2022-08-16T22:36:34.173Z,5.55
2022-08-16T22:39:04.204Z,5.28
2022-08-16T22:41:32.909Z,6.82
2022-08-16T22:44:00.865Z,6.03
2022-08-16T22:46:27.712Z,5.07
2022-08-16T22:48:54.374Z,4.47
2022-08-16T22:51:23.088Z,6.47
2022-08-16T22:53:49.939Z,6.05
2022-08-16T22:56:17.482Z,7.25
2022-08-16T22:58:45.196Z,4.55
2022-08-16T23:01:13.450Z,7.47
2022-08-16T23:03:40.801Z,5.75
2022-08-16T23:06:08.431Z,5.30
2022-08-16T23:08:39.371Z,5.68
2022-08-16T23:11:15.187Z,5.00
2022-08-16T23:13:49.849Z,4.85
2022-08-16T23:16:29.198Z,5.75
2022-08-16T23:18:59.919Z,5.45
2022-08-16T23:21:26.649Z,4.53
2022-08-16T23:23:53.446Z,7.57
2022-08-16T23:26:46.134Z,6.10
2022-08-16T23:29:07.074Z,6.65
2022-08-16T23:31:47.687Z,5.28
2022-08-16T23:34:14.191Z,5.90
2022-08-16T23:36:40.715Z,7.00
2022-08-16T23:39:07.280Z,9.48
2022-08-16T23:41:34.915Z,5.15
2022-08-16T23:44:01.998Z,5.28
2022-08-16T23:46:49.333Z,4.68
2022-08-16T23:49:58.372Z,5.88
2022-08-16T23:52:10.183Z,6.63
2022-08-16T23:54:36.727Z,4.90
2022-08-16T23:57:03.673Z,5.13
2022-08-16T23:59:30.188Z,7.40
